sensor_id;sensor_type;location;lat;lon;timestamp;pressure;altitude;pressure_sealevel;temperature;humidity
49645;BME280;36494;50.730;-1.932;2022-12-18T00:01:19;101510.00;;;3.71;100.00
49645;BME280;36494;50.730;-1.932;2022-12-18T00:03:42;101504.08;;;3.74;100.00
49645;BME280;36494;50.730;-1.932;2022-12-18T00:06:08;101500.42;;;3.73;100.00
49645;BME280;36494;50.730;-1.932;2022-12-18T00:08:33;101497.74;;;3.75;100.00
49645;BME280;36494;50.730;-1.932;2022-12-18T00:11:03;101489.84;;;3.72;100.00
49645;BME280;36494;50.730;-1.932;2022-12-18T00:13:24;101483.13;;;3.75;100.00
49645;BME280;36494;50.730;-1.932;2022-12-18T00:15:49;101484.13;;;3.76;100.00
49645;BME280;36494;50.730;-1.932;2022-12-18T00:18:15;101479.18;;;3.78;100.00
49645;BME280;36494;50.730;-1.932;2022-12-18T00:20:40;101478.47;;;3.79;100.00
49645;BME280;36494;50.730;-1.932;2022-12-18T00:23:06;101477.90;;;3.81;100.00
49645;BME280;36494;50.730;-1.932;2022-12-18T00:25:33;101475.24;;;3.80;100.00
49645;BME280;36494;50.730;-1.932;2022-12-18T00:27:57;101467.77;;;3.83;100.00
49645;BME280;36494;50.730;-1.932;2022-12-18T00:30:22;101465.90;;;3.85;100.00
49645;BME280;36494;50.730;-1.932;2022-12-18T00:32:47;101456.12;;;3.82;100.00
49645;BME280;36494;50.730;-1.932;2022-12-18T00:35:13;101448.52;;;3.85;100.00
49645;BME280;36494;50.730;-1.932;2022-12-18T00:37:38;101441.29;;;3.87;100.00
49645;BME280;36494;50.730;-1.932;2022-12-18T00:40:04;101439.23;;;3.86;100.00
49645;BME280;36494;50.730;-1.932;2022-12-18T00:42:29;101429.83;;;3.85;100.00
49645;BME280;36494;50.730;-1.932;2022-12-18T00:44:54;101420.04;;;3.88;100.00
49645;BME280;36494;50.730;-1.932;2022-12-18T00:47:19;101415.07;;;3.85;100.00
49645;BME280;36494;50.730;-1.932;2022-12-18T00:49:45;101411.50;;;3.87;100.00
49645;BME280;36494;50.730;-1.932;2022-12-18T00:52:10;101403.44;;;3.87;100.00
49645;BME280;36494;50.730;-1.932;2022-12-18T00:54:35;101404.31;;;3.92;100.00
49645;BME280;36494;50.730;-1.932;2022-12-18T00:57:01;101402.21;;;3.92;100.00
49645;BME280;36494;50.730;-1.932;2022-12-18T00:59:26;101401.08;;;3.89;100.00
49645;BME280;36494;50.730;-1.932;2022-12-18T01:01:51;101399.53;;;3.90;100.00
49645;BME280;36494;50.730;-1.932;2022-12-18T01:04:17;101398.23;;;3.90;100.00
49645;BME280;36494;50.730;-1.932;2022-12-18T01:06:42;101397.00;;;3.93;100.00
49645;BME280;36494;50.730;-1.932;2022-12-18T01:09:08;101402.32;;;3.96;100.00
49645;BME280;36494;50.730;-1.932;2022-12-18T01:11:33;101409.95;;;3.97;100.00
49645;BME280;36494;50.730;-1.932;2022-12-18T01:13:59;101416.70;;;4.01;100.00
49645;BME280;36494;50.730;-1.932;2022-12-18T01:16:24;101417.42;;;4.03;100.00
49645;BME280;36494;50.730;-1.932;2022-12-18T01:18:52;101421.63;;;4.00;100.00
49645;BME280;36494;50.730;-1.932;2022-12-18T01:21:16;101424.36;;;4.04;100.00
49645;BME280;36494;50.730;-1.932;2022-12-18T01:23:41;101427.38;;;4.03;100.00
49645;BME280;36494;50.730;-1.932;2022-12-18T01:26:07;101427.32;;;4.03;100.00
49645;BME280;36494;50.730;-1.932;2022-12-18T01:28:31;101425.70;;;4.08;100.00
49645;BME280;36494;50.730;-1.932;2022-12-18T01:30:56;101417.83;;;4.10;100.00
49645;BME280;36494;50.730;-1.932;2022-12-18T01:33:22;101419.23;;;4.10;100.00
49645;BME280;36494;50.730;-1.932;2022-12-18T01:35:47;101420.99;;;4.09;100.00
49645;BME280;36494;50.730;-1.932;2022-12-18T01:38:13;101429.94;;;4.12;100.00
49645;BME280;36494;50.730;-1.932;2022-12-18T01:40:38;101439.21;;;4.17;100.00
49645;BME280;36494;50.730;-1.932;2022-12-18T01:43:04;101439.91;;;4.19;100.00
49645;BME280;36494;50.730;-1.932;2022-12-18T01:45:30;101437.55;;;4.18;100.00
49645;BME280;36494;50.730;-1.932;2022-12-18T01:47:56;101429.06;;;4.21;100.00
49645;BME280;36494;50.730;-1.932;2022-12-18T01:50:22;101424.11;;;4.19;100.00
49645;BME280;36494;50.730;-1.932;2022-12-18T01:52:47;101420.00;;;4.22;100.00
49645;BME280;36494;50.730;-1.932;2022-12-18T01:55:11;101409.23;;;4.24;100.00
49645;BME280;36494;50.730;-1.932;2022-12-18T01:57:36;101404.86;;;4.22;100.00
49645;BME280;36494;50.730;-1.932;2022-12-18T02:00:06;101404.27;;;4.24;100.00
49645;BME280;36494;50.730;-1.932;2022-12-18T02:02:27;101390.49;;;4.20;100.00
49645;BME280;36494;50.730;-1.932;2022-12-18T02:04:52;101392.37;;;4.24;100.00
49645;BME280;36494;50.730;-1.932;2022-12-18T02:07:24;101382.60;;;4.21;100.00
49645;BME280;36494;50.730;-1.932;2022-12-18T02:09:46;101382.33;;;4.25;100.00
49645;BME280;36494;50.730;-1.932;2022-12-18T02:12:15;101378.60;;;4.27;100.00
49645;BME280;36494;50.730;-1.932;2022-12-18T02:14:39;101375.62;;;4.25;100.00
49645;BME280;36494;50.730;-1.932;2022-12-18T02:17:01;101376.07;;;4.28;100.00
49645;BME280;36494;50.730;-1.932;2022-12-18T02:19:39;101377.83;;;4.31;100.00
49645;BME280;36494;50.730;-1.932;2022-12-18T02:21:54;101373.32;;;4.33;100.00
49645;BME280;36494;50.730;-1.932;2022-12-18T02:24:31;101372.22;;;4.35;100.00
49645;BME280;36494;50.730;-1.932;2022-12-18T02:26:45;101362.66;;;4.36;100.00
49645;BME280;36494;50.730;-1.932;2022-12-18T02:29:11;101365.51;;;4.39;100.00
49645;BME280;36494;50.730;-1.932;2022-12-18T02:31:36;101369.32;;;4.41;100.00
49645;BME280;36494;50.730;-1.932;2022-12-18T02:34:00;101367.49;;;4.45;100.00
49645;BME280;36494;50.730;-1.932;2022-12-18T02:36:24;101359.59;;;4.42;100.00
49645;BME280;36494;50.730;-1.932;2022-12-18T02:38:48;101360.22;;;4.48;100.00
49645;BME280;36494;50.730;-1.932;2022-12-18T02:41:14;101363.74;;;4.46;100.00
49645;BME280;36494;50.730;-1.932;2022-12-18T02:43:38;101358.45;;;4.47;100.00
49645;BME280;36494;50.730;-1.932;2022-12-18T02:48:31;101360.52;;;4.47;100.00
49645;BME280;36494;50.730;-1.932;2022-12-18T02:51:01;101352.11;;;4.47;100.00
49645;BME280;36494;50.730;-1.932;2022-12-18T02:53:26;101347.24;;;4.49;100.00
49645;BME280;36494;50.730;-1.932;2022-12-18T02:55:54;101344.66;;;4.49;100.00
49645;BME280;36494;50.730;-1.932;2022-12-18T02:58:15;101346.45;;;4.47;100.00
49645;BME280;36494;50.730;-1.932;2022-12-18T03:00:41;101348.25;;;4.51;100.00
49645;BME280;36494;50.730;-1.932;2022-12-18T03:03:06;101352.49;;;4.49;100.00
49645;BME280;36494;50.730;-1.932;2022-12-18T03:05:31;101355.23;;;4.50;100.00
49645;BME280;36494;50.730;-1.932;2022-12-18T03:07:56;101352.28;;;4.49;100.00
49645;BME280;36494;50.730;-1.932;2022-12-18T03:10:23;101350.27;;;4.50;100.00
49645;BME280;36494;50.730;-1.932;2022-12-18T03:12:44;101342.80;;;4.49;100.00
49645;BME280;36494;50.730;-1.932;2022-12-18T03:15:10;101341.86;;;4.51;100.00
49645;BME280;36494;50.730;-1.932;2022-12-18T03:17:35;101343.50;;;4.50;100.00
49645;BME280;36494;50.730;-1.932;2022-12-18T03:20:04;101341.03;;;4.50;100.00
49645;BME280;36494;50.730;-1.932;2022-12-18T03:22:26;101340.18;;;4.52;100.00
49645;BME280;36494;50.730;-1.932;2022-12-18T03:24:51;101338.19;;;4.51;100.00
49645;BME280;36494;50.730;-1.932;2022-12-18T03:27:18;101344.80;;;4.51;100.00
49645;BME280;36494;50.730;-1.932;2022-12-18T03:29:43;101340.39;;;4.52;100.00
49645;BME280;36494;50.730;-1.932;2022-12-18T03:32:09;101335.23;;;4.53;100.00
49645;BME280;36494;50.730;-1.932;2022-12-18T03:34:33;101335.93;;;4.54;100.00
49645;BME280;36494;50.730;-1.932;2022-12-18T03:36:56;101335.48;;;4.55;100.00
49645;BME280;36494;50.730;-1.932;2022-12-18T03:39:22;101337.02;;;4.54;100.00
49645;BME280;36494;50.730;-1.932;2022-12-18T03:41:51;101342.44;;;4.54;100.00
49645;BME280;36494;50.730;-1.932;2022-12-18T03:44:14;101344.70;;;4.54;100.00
49645;BME280;36494;50.730;-1.932;2022-12-18T03:46:42;101339.12;;;4.53;100.00
49645;BME280;36494;50.730;-1.932;2022-12-18T03:49:10;101345.97;;;4.52;100.00
49645;BME280;36494;50.730;-1.932;2022-12-18T03:51:37;101349.13;;;4.55;100.00
49645;BME280;36494;50.730;-1.932;2022-12-18T03:53:57;101348.55;;;4.58;100.00
49645;BME280;36494;50.730;-1.932;2022-12-18T03:56:21;101337.78;;;4.56;100.00
49645;BME280;36494;50.730;-1.932;2022-12-18T03:58:47;101331.85;;;4.57;100.00
49645;BME280;36494;50.730;-1.932;2022-12-18T04:01:13;101333.37;;;4.60;100.00
49645;BME280;36494;50.730;-1.932;2022-12-18T04:03:37;101331.04;;;4.61;100.00
49645;BME280;36494;50.730;-1.932;2022-12-18T04:06:03;101326.39;;;4.56;100.00
49645;BME280;36494;50.730;-1.932;2022-12-18T04:08:28;101314.26;;;4.57;100.00
49645;BME280;36494;50.730;-1.932;2022-12-18T04:10:53;101309.67;;;4.53;100.00
49645;BME280;36494;50.730;-1.932;2022-12-18T04:13:23;101298.65;;;4.51;100.00
49645;BME280;36494;50.730;-1.932;2022-12-18T04:15:44;101289.49;;;4.51;100.00
49645;BME280;36494;50.730;-1.932;2022-12-18T04:18:10;101282.85;;;4.49;100.00
49645;BME280;36494;50.730;-1.932;2022-12-18T04:20:35;101286.66;;;4.50;100.00
49645;BME280;36494;50.730;-1.932;2022-12-18T04:23:01;101279.97;;;4.49;100.00
49645;BME280;36494;50.730;-1.932;2022-12-18T04:25:27;101270.59;;;4.51;100.00
49645;BME280;36494;50.730;-1.932;2022-12-18T04:27:52;101267.42;;;4.46;100.00
49645;BME280;36494;50.730;-1.932;2022-12-18T04:30:17;101257.60;;;4.48;100.00
49645;BME280;36494;50.730;-1.932;2022-12-18T04:32:43;101260.52;;;4.48;100.00
49645;BME280;36494;50.730;-1.932;2022-12-18T04:35:08;101259.65;;;4.45;100.00
49645;BME280;36494;50.730;-1.932;2022-12-18T04:37:34;101241.24;;;4.47;100.00
49645;BME280;36494;50.730;-1.932;2022-12-18T04:39:59;101233.55;;;4.45;100.00
49645;BME280;36494;50.730;-1.932;2022-12-18T04:42:24;101229.26;;;4.43;100.00
49645;BME280;36494;50.730;-1.932;2022-12-18T04:44:50;101224.49;;;4.44;100.00
49645;BME280;36494;50.730;-1.932;2022-12-18T04:47:15;101224.58;;;4.43;100.00
49645;BME280;36494;50.730;-1.932;2022-12-18T04:49:41;101220.38;;;4.38;100.00
49645;BME280;36494;50.730;-1.932;2022-12-18T04:52:06;101222.76;;;4.41;100.00
49645;BME280;36494;50.730;-1.932;2022-12-18T04:54:31;101221.03;;;4.37;100.00
49645;BME280;36494;50.730;-1.932;2022-12-18T04:56:57;101216.43;;;4.37;100.00
49645;BME280;36494;50.730;-1.932;2022-12-18T04:59:22;101217.46;;;4.37;100.00
49645;BME280;36494;50.730;-1.932;2022-12-18T05:01:47;101220.90;;;4.39;100.00
49645;BME280;36494;50.730;-1.932;2022-12-18T05:04:13;101220.02;;;4.37;100.00
49645;BME280;36494;50.730;-1.932;2022-12-18T05:06:39;101218.93;;;4.32;100.00
49645;BME280;36494;50.730;-1.932;2022-12-18T05:09:04;101206.47;;;4.29;100.00
49645;BME280;36494;50.730;-1.932;2022-12-18T05:11:29;101201.81;;;4.30;100.00
49645;BME280;36494;50.730;-1.932;2022-12-18T05:13:56;101195.76;;;4.30;100.00
49645;BME280;36494;50.730;-1.932;2022-12-18T05:16:21;101203.89;;;4.29;100.00
49645;BME280;36494;50.730;-1.932;2022-12-18T05:18:46;101196.99;;;4.29;100.00
49645;BME280;36494;50.730;-1.932;2022-12-18T05:21:11;101186.44;;;4.27;100.00
49645;BME280;36494;50.730;-1.932;2022-12-18T05:23:37;101175.06;;;4.30;100.00
49645;BME280;36494;50.730;-1.932;2022-12-18T05:26:04;101163.17;;;4.20;100.00
49645;BME280;36494;50.730;-1.932;2022-12-18T05:28:29;101156.01;;;4.22;100.00
49645;BME280;36494;50.730;-1.932;2022-12-18T05:30:53;101152.26;;;4.14;100.00
49645;BME280;36494;50.730;-1.932;2022-12-18T05:33:18;101138.42;;;4.17;100.00
49645;BME280;36494;50.730;-1.932;2022-12-18T05:35:43;101127.79;;;4.13;100.00
49645;BME280;36494;50.730;-1.932;2022-12-18T05:38:08;101125.92;;;4.10;100.00
49645;BME280;36494;50.730;-1.932;2022-12-18T05:40:33;101124.68;;;4.03;100.00
49645;BME280;36494;50.730;-1.932;2022-12-18T05:42:59;101116.26;;;4.02;100.00
49645;BME280;36494;50.730;-1.932;2022-12-18T05:45:25;101116.70;;;4.00;100.00
49645;BME280;36494;50.730;-1.932;2022-12-18T05:47:51;101118.53;;;3.99;100.00
49645;BME280;36494;50.730;-1.932;2022-12-18T05:50:16;101123.15;;;3.96;100.00
49645;BME280;36494;50.730;-1.932;2022-12-18T05:52:42;101114.94;;;3.96;100.00
49645;BME280;36494;50.730;-1.932;2022-12-18T05:55:08;101113.66;;;3.86;100.00
49645;BME280;36494;50.730;-1.932;2022-12-18T05:57:33;101113.63;;;3.84;100.00
49645;BME280;36494;50.730;-1.932;2022-12-18T05:59:58;101111.69;;;3.82;100.00
49645;BME280;36494;50.730;-1.932;2022-12-18T06:02:24;101111.25;;;3.80;100.00
49645;BME280;36494;50.730;-1.932;2022-12-18T06:04:49;101116.24;;;3.77;100.00
49645;BME280;36494;50.730;-1.932;2022-12-18T06:07:15;101118.57;;;3.71;100.00
49645;BME280;36494;50.730;-1.932;2022-12-18T06:09:41;101125.69;;;3.64;100.00
49645;BME280;36494;50.730;-1.932;2022-12-18T06:12:06;101120.77;;;3.63;100.00
49645;BME280;36494;50.730;-1.932;2022-12-18T06:14:32;101113.71;;;3.63;100.00
49645;BME280;36494;50.730;-1.932;2022-12-18T06:16:58;101109.44;;;3.61;100.00
49645;BME280;36494;50.730;-1.932;2022-12-18T06:19:23;101114.83;;;3.63;100.00
49645;BME280;36494;50.730;-1.932;2022-12-18T06:21:48;101108.70;;;3.53;100.00
49645;BME280;36494;50.730;-1.932;2022-12-18T06:24:14;101107.01;;;3.49;100.00
49645;BME280;36494;50.730;-1.932;2022-12-18T06:26:40;101110.14;;;3.54;100.00
49645;BME280;36494;50.730;-1.932;2022-12-18T06:29:05;101108.47;;;3.56;100.00
49645;BME280;36494;50.730;-1.932;2022-12-18T06:31:31;101120.38;;;3.48;100.00
49645;BME280;36494;50.730;-1.932;2022-12-18T06:33:56;101115.57;;;3.48;100.00
49645;BME280;36494;50.730;-1.932;2022-12-18T06:36:22;101120.64;;;3.44;100.00
49645;BME280;36494;50.730;-1.932;2022-12-18T06:38:47;101131.16;;;3.43;100.00
49645;BME280;36494;50.730;-1.932;2022-12-18T06:41:15;101131.62;;;3.44;100.00
49645;BME280;36494;50.730;-1.932;2022-12-18T06:43:38;101136.68;;;3.41;100.00
49645;BME280;36494;50.730;-1.932;2022-12-18T06:46:04;101136.40;;;3.42;100.00
49645;BME280;36494;50.730;-1.932;2022-12-18T06:48:28;101145.26;;;3.43;100.00
49645;BME280;36494;50.730;-1.932;2022-12-18T06:50:54;101146.65;;;3.41;100.00
49645;BME280;36494;50.730;-1.932;2022-12-18T06:53:19;101143.17;;;3.46;100.00
49645;BME280;36494;50.730;-1.932;2022-12-18T06:55:44;101131.35;;;3.46;100.00
49645;BME280;36494;50.730;-1.932;2022-12-18T06:58:10;101123.87;;;3.47;100.00
49645;BME280;36494;50.730;-1.932;2022-12-18T07:00:35;101125.39;;;3.47;100.00
49645;BME280;36494;50.730;-1.932;2022-12-18T07:03:01;101127.33;;;3.46;100.00
49645;BME280;36494;50.730;-1.932;2022-12-18T07:05:26;101125.07;;;3.43;100.00
49645;BME280;36494;50.730;-1.932;2022-12-18T07:07:51;101132.09;;;3.44;100.00
49645;BME280;36494;50.730;-1.932;2022-12-18T07:10:17;101130.58;;;3.47;100.00
49645;BME280;36494;50.730;-1.932;2022-12-18T07:12:43;101125.22;;;3.45;100.00
49645;BME280;36494;50.730;-1.932;2022-12-18T07:15:08;101114.27;;;3.46;100.00
49645;BME280;36494;50.730;-1.932;2022-12-18T07:17:33;101106.33;;;3.55;100.00
49645;BME280;36494;50.730;-1.932;2022-12-18T07:19:58;101094.80;;;3.58;100.00
49645;BME280;36494;50.730;-1.932;2022-12-18T07:22:25;101099.03;;;3.57;100.00
49645;BME280;36494;50.730;-1.932;2022-12-18T07:24:49;101104.42;;;3.56;100.00
49645;BME280;36494;50.730;-1.932;2022-12-18T07:27:15;101102.51;;;3.55;100.00
49645;BME280;36494;50.730;-1.932;2022-12-18T07:29:41;101100.88;;;3.54;100.00
49645;BME280;36494;50.730;-1.932;2022-12-18T07:32:06;101096.16;;;3.56;100.00
49645;BME280;36494;50.730;-1.932;2022-12-18T07:34:31;101101.29;;;3.57;100.00
49645;BME280;36494;50.730;-1.932;2022-12-18T07:36:57;101103.49;;;3.64;100.00
49645;BME280;36494;50.730;-1.932;2022-12-18T07:39:22;101100.38;;;3.68;100.00
49645;BME280;36494;50.730;-1.932;2022-12-18T07:41:48;101101.65;;;3.61;100.00
49645;BME280;36494;50.730;-1.932;2022-12-18T07:44:14;101106.42;;;3.59;100.00
49645;BME280;36494;50.730;-1.932;2022-12-18T07:46:39;101112.67;;;3.57;100.00
49645;BME280;36494;50.730;-1.932;2022-12-18T07:49:05;101103.76;;;3.54;100.00
49645;BME280;36494;50.730;-1.932;2022-12-18T07:51:31;101109.07;;;3.54;100.00
49645;BME280;36494;50.730;-1.932;2022-12-18T07:53:56;101102.90;;;3.54;100.00
49645;BME280;36494;50.730;-1.932;2022-12-18T07:56:22;101099.43;;;3.51;100.00
49645;BME280;36494;50.730;-1.932;2022-12-18T07:58:47;101093.32;;;3.47;100.00
49645;BME280;36494;50.730;-1.932;2022-12-18T08:01:13;101088.79;;;3.57;100.00
49645;BME280;36494;50.730;-1.932;2022-12-18T08:03:39;101089.78;;;3.51;100.00
49645;BME280;36494;50.730;-1.932;2022-12-18T08:06:06;101096.13;;;3.53;100.00
49645;BME280;36494;50.730;-1.932;2022-12-18T08:08:30;101097.32;;;3.47;100.00
49645;BME280;36494;50.730;-1.932;2022-12-18T08:10:55;101098.88;;;3.56;100.00
49645;BME280;36494;50.730;-1.932;2022-12-18T08:13:21;101092.57;;;3.61;100.00
49645;BME280;36494;50.730;-1.932;2022-12-18T08:15:46;101097.03;;;3.63;100.00
49645;BME280;36494;50.730;-1.932;2022-12-18T08:18:11;101100.73;;;3.62;100.00
49645;BME280;36494;50.730;-1.932;2022-12-18T08:20:37;101105.38;;;3.57;100.00
49645;BME280;36494;50.730;-1.932;2022-12-18T08:23:02;101103.22;;;3.57;100.00
49645;BME280;36494;50.730;-1.932;2022-12-18T08:25:28;101102.92;;;3.57;100.00
49645;BME280;36494;50.730;-1.932;2022-12-18T08:27:53;101092.64;;;3.62;100.00
49645;BME280;36494;50.730;-1.932;2022-12-18T08:30:19;101084.96;;;3.59;100.00
49645;BME280;36494;50.730;-1.932;2022-12-18T08:32:44;101082.45;;;3.59;100.00
49645;BME280;36494;50.730;-1.932;2022-12-18T08:35:10;101080.88;;;3.60;100.00
49645;BME280;36494;50.730;-1.932;2022-12-18T08:37:36;101080.64;;;3.69;100.00
49645;BME280;36494;50.730;-1.932;2022-12-18T08:40:01;101081.28;;;3.68;100.00
49645;BME280;36494;50.730;-1.932;2022-12-18T08:42:27;101075.86;;;3.67;100.00
49645;BME280;36494;50.730;-1.932;2022-12-18T08:44:52;101075.16;;;3.68;100.00
49645;BME280;36494;50.730;-1.932;2022-12-18T08:47:17;101079.93;;;3.64;100.00
49645;BME280;36494;50.730;-1.932;2022-12-18T08:49:42;101079.87;;;3.66;100.00
49645;BME280;36494;50.730;-1.932;2022-12-18T08:52:08;101070.36;;;3.57;100.00
49645;BME280;36494;50.730;-1.932;2022-12-18T08:54:33;101058.32;;;3.56;100.00
49645;BME280;36494;50.730;-1.932;2022-12-18T08:56:59;101056.81;;;3.62;100.00
49645;BME280;36494;50.730;-1.932;2022-12-18T08:59:24;101056.82;;;3.63;100.00
49645;BME280;36494;50.730;-1.932;2022-12-18T09:01:50;101056.54;;;3.67;100.00
49645;BME280;36494;50.730;-1.932;2022-12-18T09:04:15;101056.61;;;3.69;100.00
49645;BME280;36494;50.730;-1.932;2022-12-18T09:06:41;101055.87;;;3.73;100.00
49645;BME280;36494;50.730;-1.932;2022-12-18T09:09:07;101058.06;;;3.70;100.00
49645;BME280;36494;50.730;-1.932;2022-12-18T09:11:33;101060.72;;;3.77;100.00
49645;BME280;36494;50.730;-1.932;2022-12-18T09:14:00;101062.01;;;3.76;100.00
49645;BME280;36494;50.730;-1.932;2022-12-18T09:16:25;101054.33;;;3.79;100.00
49645;BME280;36494;50.730;-1.932;2022-12-18T09:18:49;101054.93;;;3.79;100.00
49645;BME280;36494;50.730;-1.932;2022-12-18T09:21:17;101059.18;;;3.81;100.00
49645;BME280;36494;50.730;-1.932;2022-12-18T09:23:41;101072.19;;;3.86;100.00
49645;BME280;36494;50.730;-1.932;2022-12-18T09:26:06;101069.95;;;3.87;100.00
49645;BME280;36494;50.730;-1.932;2022-12-18T09:28:32;101069.31;;;3.89;100.00
49645;BME280;36494;50.730;-1.932;2022-12-18T09:30:57;101066.64;;;3.94;100.00
49645;BME280;36494;50.730;-1.932;2022-12-18T09:33:23;101057.09;;;3.92;100.00
49645;BME280;36494;50.730;-1.932;2022-12-18T09:35:48;101056.49;;;3.97;100.00
49645;BME280;36494;50.730;-1.932;2022-12-18T09:38:15;101049.12;;;4.01;100.00
49645;BME280;36494;50.730;-1.932;2022-12-18T09:40:42;101050.92;;;4.08;100.00
49645;BME280;36494;50.730;-1.932;2022-12-18T09:43:05;101044.97;;;4.10;100.00
49645;BME280;36494;50.730;-1.932;2022-12-18T09:45:31;101049.00;;;4.17;100.00
49645;BME280;36494;50.730;-1.932;2022-12-18T09:47:56;101047.56;;;4.23;100.00
49645;BME280;36494;50.730;-1.932;2022-12-18T09:50:25;101041.24;;;4.27;100.00
49645;BME280;36494;50.730;-1.932;2022-12-18T09:52:51;101038.69;;;4.29;100.00
49645;BME280;36494;50.730;-1.932;2022-12-18T09:55:19;101042.74;;;4.34;100.00
49645;BME280;36494;50.730;-1.932;2022-12-18T09:57:45;101044.28;;;4.39;100.00
49645;BME280;36494;50.730;-1.932;2022-12-18T10:00:08;101042.09;;;4.41;100.00
49645;BME280;36494;50.730;-1.932;2022-12-18T10:02:30;101039.25;;;4.37;100.00
49645;BME280;36494;50.730;-1.932;2022-12-18T10:05:02;101036.81;;;4.43;100.00
49645;BME280;36494;50.730;-1.932;2022-12-18T10:07:26;101035.84;;;4.48;100.00
49645;BME280;36494;50.730;-1.932;2022-12-18T10:09:52;101035.63;;;4.47;100.00
49645;BME280;36494;50.730;-1.932;2022-12-18T10:12:17;101029.97;;;4.53;100.00
49645;BME280;36494;50.730;-1.932;2022-12-18T10:14:45;101027.27;;;4.60;100.00
49645;BME280;36494;50.730;-1.932;2022-12-18T10:17:11;101027.58;;;4.57;100.00
49645;BME280;36494;50.730;-1.932;2022-12-18T10:19:36;101025.91;;;4.61;100.00
49645;BME280;36494;50.730;-1.932;2022-12-18T10:22:01;101023.70;;;4.63;100.00
49645;BME280;36494;50.730;-1.932;2022-12-18T10:24:26;101022.77;;;4.66;100.00
49645;BME280;36494;50.730;-1.932;2022-12-18T10:26:46;101011.08;;;4.72;100.00
49645;BME280;36494;50.730;-1.932;2022-12-18T10:29:12;101000.48;;;4.74;100.00
49645;BME280;36494;50.730;-1.932;2022-12-18T10:31:36;100993.60;;;4.83;100.00
49645;BME280;36494;50.730;-1.932;2022-12-18T10:34:02;100988.22;;;4.86;100.00
49645;BME280;36494;50.730;-1.932;2022-12-18T10:36:27;100982.91;;;4.89;100.00
49645;BME280;36494;50.730;-1.932;2022-12-18T10:38:52;100976.85;;;4.91;100.00
49645;BME280;36494;50.730;-1.932;2022-12-18T10:41:25;100971.42;;;4.98;100.00
49645;BME280;36494;50.730;-1.932;2022-12-18T10:43:44;100966.05;;;5.03;100.00
49645;BME280;36494;50.730;-1.932;2022-12-18T10:46:15;100960.92;;;5.05;100.00
49645;BME280;36494;50.730;-1.932;2022-12-18T10:48:39;100952.71;;;5.09;100.00
49645;BME280;36494;50.730;-1.932;2022-12-18T10:51:01;100943.54;;;5.14;100.00
49645;BME280;36494;50.730;-1.932;2022-12-18T10:53:28;100941.79;;;5.17;100.00
49645;BME280;36494;50.730;-1.932;2022-12-18T10:55:53;100938.33;;;5.22;100.00
49645;BME280;36494;50.730;-1.932;2022-12-18T10:58:23;100940.30;;;5.26;100.00
49645;BME280;36494;50.730;-1.932;2022-12-18T11:00:43;100938.07;;;5.29;100.00
49645;BME280;36494;50.730;-1.932;2022-12-18T11:05:34;100920.09;;;5.35;100.00
49645;BME280;36494;50.730;-1.932;2022-12-18T11:07:59;100917.00;;;5.40;100.00
49645;BME280;36494;50.730;-1.932;2022-12-18T11:10:28;100912.48;;;5.44;100.00
49645;BME280;36494;50.730;-1.932;2022-12-18T11:12:49;100908.81;;;5.49;100.00
49645;BME280;36494;50.730;-1.932;2022-12-18T11:15:16;100908.64;;;5.53;100.00
49645;BME280;36494;50.730;-1.932;2022-12-18T11:17:39;100902.68;;;5.59;100.00
49645;BME280;36494;50.730;-1.932;2022-12-18T11:20:17;100900.22;;;5.65;100.00
49645;BME280;36494;50.730;-1.932;2022-12-18T11:22:32;100896.34;;;5.70;100.00
49645;BME280;36494;50.730;-1.932;2022-12-18T11:24:58;100894.09;;;5.74;100.00
49645;BME280;36494;50.730;-1.932;2022-12-18T11:27:21;100889.99;;;5.78;100.00
49645;BME280;36494;50.730;-1.932;2022-12-18T11:29:50;100885.75;;;5.80;100.00
49645;BME280;36494;50.730;-1.932;2022-12-18T11:32:22;100875.16;;;5.83;100.00
49645;BME280;36494;50.730;-1.932;2022-12-18T11:34:37;100867.66;;;5.86;100.00
49645;BME280;36494;50.730;-1.932;2022-12-18T11:37:03;100866.65;;;5.89;100.00
49645;BME280;36494;50.730;-1.932;2022-12-18T11:39:34;100867.18;;;5.94;100.00
49645;BME280;36494;50.730;-1.932;2022-12-18T11:41:57;100862.37;;;5.96;100.00
49645;BME280;36494;50.730;-1.932;2022-12-18T11:44:22;100856.95;;;6.02;100.00
49645;BME280;36494;50.730;-1.932;2022-12-18T11:46:47;100849.90;;;6.05;100.00
49645;BME280;36494;50.730;-1.932;2022-12-18T11:49:12;100849.44;;;6.08;100.00
49645;BME280;36494;50.730;-1.932;2022-12-18T11:51:40;100842.09;;;6.14;100.00
49645;BME280;36494;50.730;-1.932;2022-12-18T11:54:00;100840.64;;;6.14;100.00
49645;BME280;36494;50.730;-1.932;2022-12-18T11:56:31;100840.46;;;6.19;100.00
49645;BME280;36494;50.730;-1.932;2022-12-18T11:58:52;100838.38;;;6.20;100.00
49645;BME280;36494;50.730;-1.932;2022-12-18T12:01:28;100829.41;;;6.20;100.00
49645;BME280;36494;50.730;-1.932;2022-12-18T12:03:57;100827.37;;;6.21;100.00
49645;BME280;36494;50.730;-1.932;2022-12-18T12:06:11;100828.65;;;6.22;100.00
49645;BME280;36494;50.730;-1.932;2022-12-18T12:08:40;100818.47;;;6.23;100.00
49645;BME280;36494;50.730;-1.932;2022-12-18T12:11:03;100809.03;;;6.25;100.00
49645;BME280;36494;50.730;-1.932;2022-12-18T12:13:30;100813.66;;;6.26;100.00
49645;BME280;36494;50.730;-1.932;2022-12-18T12:15:55;100810.14;;;6.29;100.00
49645;BME280;36494;50.730;-1.932;2022-12-18T12:18:23;100805.24;;;6.32;100.00
49645;BME280;36494;50.730;-1.932;2022-12-18T12:20:47;100798.57;;;6.35;100.00
49645;BME280;36494;50.730;-1.932;2022-12-18T12:23:13;100792.02;;;6.40;100.00
49645;BME280;36494;50.730;-1.932;2022-12-18T12:25:37;100787.02;;;6.47;100.00
49645;BME280;36494;50.730;-1.932;2022-12-18T12:28:07;100781.07;;;6.45;100.00
49645;BME280;36494;50.730;-1.932;2022-12-18T12:30:26;100779.76;;;6.48;100.00
49645;BME280;36494;50.730;-1.932;2022-12-18T12:32:59;100772.79;;;6.48;100.00
49645;BME280;36494;50.730;-1.932;2022-12-18T12:35:24;100770.40;;;6.49;100.00